sensor_id;sensor_type;location;lat;lon;timestamp;pressure;altitude;pressure_sealevel;temperature;humidity
43701;BME280;58809;47.984;7.964;2023-01-29T00:01:06;98104.59;;;1.67;70.43
43701;BME280;58809;47.984;7.964;2023-01-29T00:04:07;98114.72;;;1.72;70.74
43701;BME280;58809;47.984;7.964;2023-01-29T00:07:09;98114.59;;;1.73;70.55
43701;BME280;58809;47.984;7.964;2023-01-29T00:10:10;98100.31;;;1.66;70.56
43701;BME280;58809;47.984;7.964;2023-01-29T00:13:12;98115.84;;;1.68;70.61
43701;BME280;58809;47.984;7.964;2023-01-29T00:16:14;98110.09;;;1.63;70.54
43701;BME280;58809;47.984;7.964;2023-01-29T00:19:15;98109.19;;;1.64;70.36
43701;BME280;58809;47.984;7.964;2023-01-29T00:22:17;98119.91;;;1.59;70.58
43701;BME280;58809;47.984;7.964;2023-01-29T00:25:19;98119.19;;;1.57;70.98
43701;BME280;58809;47.984;7.964;2023-01-29T00:28:21;98113.97;;;1.57;71.06
43701;BME280;58809;47.984;7.964;2023-01-29T00:31:23;98110.94;;;1.50;71.04
43701;BME280;58809;47.984;7.964;2023-01-29T00:34:25;98113.22;;;1.55;71.49
43701;BME280;58809;47.984;7.964;2023-01-29T00:37:27;98116.47;;;1.59;71.25
43701;BME280;58809;47.984;7.964;2023-01-29T00:40:28;98110.94;;;1.50;71.19
43701;BME280;58809;47.984;7.964;2023-01-29T00:43:50;98115.53;;;1.47;71.11
43701;BME280;58809;47.984;7.964;2023-01-29T00:47:10;98113.75;;;1.47;70.88
43701;BME280;58809;47.984;7.964;2023-01-29T00:50:31;98118.22;;;1.45;71.12
43701;BME280;58809;47.984;7.964;2023-01-29T00:53:32;98115.31;;;1.50;71.07
43701;BME280;58809;47.984;7.964;2023-01-29T00:56:35;98109.47;;;1.59;71.23
43701;BME280;58809;47.984;7.964;2023-01-29T00:59:36;98107.19;;;1.67;71.26
43701;BME280;58809;47.984;7.964;2023-01-29T01:02:38;98097.59;;;1.68;71.22
43701;BME280;58809;47.984;7.964;2023-01-29T01:06:08;98098.03;;;1.75;71.28
43701;BME280;58809;47.984;7.964;2023-01-29T01:09:10;98097.59;;;1.81;71.42
43701;BME280;58809;47.984;7.964;2023-01-29T01:12:30;98108.66;;;1.71;71.34
43701;BME280;58809;47.984;7.964;2023-01-29T01:15:37;98103.53;;;1.70;71.45
43701;BME280;58809;47.984;7.964;2023-01-29T01:18:40;98108.84;;;1.68;71.57
43701;BME280;58809;47.984;7.964;2023-01-29T01:21:42;98102.19;;;1.64;71.63
43701;BME280;58809;47.984;7.964;2023-01-29T01:24:45;98098.56;;;1.67;71.75
43701;BME280;58809;47.984;7.964;2023-01-29T01:27:47;98094.69;;;1.60;71.48
43701;BME280;58809;47.984;7.964;2023-01-29T01:30:49;98100.28;;;1.53;71.45
43701;BME280;58809;47.984;7.964;2023-01-29T01:33:50;98101.13;;;1.41;71.28
43701;BME280;58809;47.984;7.964;2023-01-29T01:36:54;98108.41;;;1.36;70.92
43701;BME280;58809;47.984;7.964;2023-01-29T01:39:56;98106.63;;;1.37;70.55
43701;BME280;58809;47.984;7.964;2023-01-29T01:42:59;98098.81;;;1.37;70.01
43701;BME280;58809;47.984;7.964;2023-01-29T01:46:01;98104.34;;;1.32;70.23
43701;BME280;58809;47.984;7.964;2023-01-29T01:49:09;98102.34;;;1.35;70.11
43701;BME280;58809;47.984;7.964;2023-01-29T01:52:12;98097.13;;;1.35;69.84
43701;BME280;58809;47.984;7.964;2023-01-29T01:55:16;98104.94;;;1.35;69.87
43701;BME280;58809;47.984;7.964;2023-01-29T01:58:27;98108.59;;;1.33;70.13
43701;BME280;58809;47.984;7.964;2023-01-29T02:01:31;98111.53;;;1.28;69.87
43701;BME280;58809;47.984;7.964;2023-01-29T02:04:33;98104.72;;;1.26;70.16
43701;BME280;58809;47.984;7.964;2023-01-29T02:07:53;98097.63;;;1.28;69.79
43701;BME280;58809;47.984;7.964;2023-01-29T02:11:13;98092.09;;;1.20;69.52
43701;BME280;58809;47.984;7.964;2023-01-29T02:14:15;98096.44;;;1.06;69.33
43701;BME280;58809;47.984;7.964;2023-01-29T02:17:18;98093.38;;;1.00;69.71
43701;BME280;58809;47.984;7.964;2023-01-29T02:20:23;98100.75;;;0.93;69.74
43701;BME280;58809;47.984;7.964;2023-01-29T02:27:05;98108.16;;;0.86;69.38
43701;BME280;58809;47.984;7.964;2023-01-29T02:33:46;98115.13;;;0.86;69.69
43701;BME280;58809;47.984;7.964;2023-01-29T02:37:02;98114.59;;;0.81;69.97
43701;BME280;58809;47.984;7.964;2023-01-29T02:46:32;98113.41;;;0.72;69.88
43701;BME280;58809;47.984;7.964;2023-01-29T02:49:58;98113.50;;;0.70;69.93
43701;BME280;58809;47.984;7.964;2023-01-29T02:53:12;98109.94;;;0.71;70.09
43701;BME280;58809;47.984;7.964;2023-01-29T02:56:19;98114.69;;;0.79;70.02
43701;BME280;58809;47.984;7.964;2023-01-29T02:59:28;98115.97;;;0.86;69.70
43701;BME280;58809;47.984;7.964;2023-01-29T03:02:54;98122.84;;;0.87;69.78
43701;BME280;58809;47.984;7.964;2023-01-29T03:06:03;98121.50;;;0.94;69.82
43701;BME280;58809;47.984;7.964;2023-01-29T03:09:11;98109.63;;;0.90;69.49
43701;BME280;58809;47.984;7.964;2023-01-29T03:12:23;98124.22;;;0.93;70.02
43701;BME280;58809;47.984;7.964;2023-01-29T03:15:42;98129.97;;;0.98;69.62
43701;BME280;58809;47.984;7.964;2023-01-29T03:19:19;98135.63;;;1.05;69.75
43701;BME280;58809;47.984;7.964;2023-01-29T03:22:24;98127.81;;;1.05;70.21
43701;BME280;58809;47.984;7.964;2023-01-29T03:25:29;98124.84;;;0.96;69.81
43701;BME280;58809;47.984;7.964;2023-01-29T03:28:51;98128.28;;;0.97;69.83
43701;BME280;58809;47.984;7.964;2023-01-29T03:32:12;98126.91;;;0.91;69.63
43701;BME280;58809;47.984;7.964;2023-01-29T03:35:18;98126.44;;;0.99;69.99
43701;BME280;58809;47.984;7.964;2023-01-29T03:38:33;98128.84;;;1.02;69.93
43701;BME280;58809;47.984;7.964;2023-01-29T03:41:41;98127.59;;;1.08;69.69
43701;BME280;58809;47.984;7.964;2023-01-29T03:48:31;98123.13;;;1.10;70.18
43701;BME280;58809;47.984;7.964;2023-01-29T03:51:58;98119.91;;;1.06;70.61
43701;BME280;58809;47.984;7.964;2023-01-29T03:55:09;98132.31;;;1.03;69.85
43701;BME280;58809;47.984;7.964;2023-01-29T03:58:25;98121.97;;;1.01;69.61
43701;BME280;58809;47.984;7.964;2023-01-29T04:01:39;98122.16;;;0.98;69.52
43701;BME280;58809;47.984;7.964;2023-01-29T04:04:46;98122.19;;;0.84;69.57
43701;BME280;58809;47.984;7.964;2023-01-29T04:07:58;98124.56;;;0.74;69.54
43701;BME280;58809;47.984;7.964;2023-01-29T04:11:09;98129.94;;;0.71;69.44
43701;BME280;58809;47.984;7.964;2023-01-29T04:14:12;98135.56;;;0.65;69.41
43701;BME280;58809;47.984;7.964;2023-01-29T04:17:18;98128.97;;;0.59;69.15
43701;BME280;58809;47.984;7.964;2023-01-29T04:20:36;98128.88;;;0.61;68.84
43701;BME280;58809;47.984;7.964;2023-01-29T04:23:37;98127.91;;;0.62;68.87
43701;BME280;58809;47.984;7.964;2023-01-29T04:26:56;98128.88;;;0.61;68.93
43701;BME280;58809;47.984;7.964;2023-01-29T04:37:25;98120.09;;;0.62;69.27
43701;BME280;58809;47.984;7.964;2023-01-29T04:49:55;98113.41;;;0.72;69.01
43701;BME280;58809;47.984;7.964;2023-01-29T04:53:06;98112.94;;;0.65;68.67
43701;BME280;58809;47.984;7.964;2023-01-29T04:56:36;98112.47;;;0.58;68.93
43701;BME280;58809;47.984;7.964;2023-01-29T04:59:51;98109.13;;;0.56;69.08
43701;BME280;58809;47.984;7.964;2023-01-29T05:02:55;98103.00;;;0.57;69.20
43701;BME280;58809;47.984;7.964;2023-01-29T05:05:59;98098.81;;;0.55;69.33
43701;BME280;58809;47.984;7.964;2023-01-29T05:09:02;98103.56;;;0.63;69.13
43701;BME280;58809;47.984;7.964;2023-01-29T05:12:08;98105.44;;;0.61;68.92
43701;BME280;58809;47.984;7.964;2023-01-29T05:15:19;98098.94;;;0.53;68.73
43701;BME280;58809;47.984;7.964;2023-01-29T05:18:23;98118.09;;;0.38;70.57
43701;BME280;58809;47.984;7.964;2023-01-29T05:21:25;98125.38;;;0.18;72.87
43701;BME280;58809;47.984;7.964;2023-01-29T05:24:27;98119.44;;;0.02;75.71
43701;BME280;58809;47.984;7.964;2023-01-29T05:27:34;98130.66;;;0.03;75.86
43701;BME280;58809;47.984;7.964;2023-01-29T05:30:54;98131.56;;;-0.27;79.65
43701;BME280;58809;47.984;7.964;2023-01-29T05:33:57;98131.44;;;-0.40;79.81
43701;BME280;58809;47.984;7.964;2023-01-29T05:36:58;98131.78;;;-0.46;80.92
43701;BME280;58809;47.984;7.964;2023-01-29T05:40:00;98127.06;;;-0.40;82.64
43701;BME280;58809;47.984;7.964;2023-01-29T05:43:01;98118.91;;;-0.33;82.93
43701;BME280;58809;47.984;7.964;2023-01-29T05:46:03;98127.75;;;-0.22;83.56
43701;BME280;58809;47.984;7.964;2023-01-29T05:49:05;98123.22;;;-0.18;83.87
43701;BME280;58809;47.984;7.964;2023-01-29T05:52:06;98123.31;;;-0.20;83.75
43701;BME280;58809;47.984;7.964;2023-01-29T05:55:08;98130.59;;;-0.41;84.74
43701;BME280;58809;47.984;7.964;2023-01-29T05:58:10;98143.34;;;-0.36;86.22
43701;BME280;58809;47.984;7.964;2023-01-29T06:01:20;98149.13;;;-0.31;86.12
43701;BME280;58809;47.984;7.964;2023-01-29T06:04:23;98158.50;;;-0.28;86.64
43701;BME280;58809;47.984;7.964;2023-01-29T06:07:24;98155.59;;;-0.38;87.36
43701;BME280;58809;47.984;7.964;2023-01-29T06:10:26;98154.34;;;-0.47;87.42
43701;BME280;58809;47.984;7.964;2023-01-29T06:13:27;98152.88;;;-0.51;88.01
43701;BME280;58809;47.984;7.964;2023-01-29T06:16:29;98146.56;;;-0.47;88.24
43701;BME280;58809;47.984;7.964;2023-01-29T06:19:31;98137.41;;;-0.38;89.30
43701;BME280;58809;47.984;7.964;2023-01-29T06:22:32;98128.84;;;-0.40;88.71
43701;BME280;58809;47.984;7.964;2023-01-29T06:25:34;98113.41;;;-0.43;88.82
43701;BME280;58809;47.984;7.964;2023-01-29T06:28:36;98098.34;;;-0.52;89.37
43701;BME280;58809;47.984;7.964;2023-01-29T06:31:37;98100.16;;;-0.69;89.73
43701;BME280;58809;47.984;7.964;2023-01-29T06:34:40;98096.41;;;-0.79;90.71
43701;BME280;58809;47.984;7.964;2023-01-29T06:37:42;98107.69;;;-0.94;91.08
43701;BME280;58809;47.984;7.964;2023-01-29T06:40:43;98122.38;;;-1.09;91.94
43701;BME280;58809;47.984;7.964;2023-01-29T06:43:45;98130.19;;;-1.25;91.76
43701;BME280;58809;47.984;7.964;2023-01-29T06:46:47;98136.91;;;-1.37;92.89
43701;BME280;58809;47.984;7.964;2023-01-29T06:49:49;98136.88;;;-1.53;93.29
43701;BME280;58809;47.984;7.964;2023-01-29T06:52:50;98146.00;;;-1.62;93.77
43701;BME280;58809;47.984;7.964;2023-01-29T06:55:52;98150.88;;;-1.56;92.96
43701;BME280;58809;47.984;7.964;2023-01-29T06:58:54;98143.56;;;-1.49;92.40
43701;BME280;58809;47.984;7.964;2023-01-29T07:01:55;98155.97;;;-1.38;90.17
43701;BME280;58809;47.984;7.964;2023-01-29T07:04:57;98163.16;;;-1.43;87.42
43701;BME280;58809;47.984;7.964;2023-01-29T07:07:58;98172.66;;;-1.42;87.25
43701;BME280;58809;47.984;7.964;2023-01-29T07:11:01;98176.06;;;-1.42;86.42
43701;BME280;58809;47.984;7.964;2023-01-29T07:14:03;98176.81;;;-1.40;85.98
43701;BME280;58809;47.984;7.964;2023-01-29T07:17:05;98191.50;;;-1.39;86.24
43701;BME280;58809;47.984;7.964;2023-01-29T07:20:07;98189.16;;;-1.27;85.65
43701;BME280;58809;47.984;7.964;2023-01-29T07:23:11;98196.13;;;-1.28;84.88
43701;BME280;58809;47.984;7.964;2023-01-29T07:26:13;98204.81;;;-1.29;84.84
43701;BME280;58809;47.984;7.964;2023-01-29T07:29:14;98195.94;;;-1.25;83.23
43701;BME280;58809;47.984;7.964;2023-01-29T07:32:16;98198.72;;;-1.28;82.69
43701;BME280;58809;47.984;7.964;2023-01-29T07:35:17;98198.53;;;-1.25;81.58
43701;BME280;58809;47.984;7.964;2023-01-29T07:38:19;98202.56;;;-1.19;81.27
43701;BME280;58809;47.984;7.964;2023-01-29T07:41:21;98204.09;;;-1.15;80.86
43701;BME280;58809;47.984;7.964;2023-01-29T07:44:22;98204.75;;;-1.11;80.49
43701;BME280;58809;47.984;7.964;2023-01-29T07:47:24;98206.09;;;-1.04;81.21
43701;BME280;58809;47.984;7.964;2023-01-29T07:50:26;98193.50;;;-0.96;80.80
43701;BME280;58809;47.984;7.964;2023-01-29T07:53:28;98193.84;;;-0.86;81.02
43701;BME280;58809;47.984;7.964;2023-01-29T07:56:29;98201.53;;;-0.69;81.03
43701;BME280;58809;47.984;7.964;2023-01-29T07:59:31;98198.19;;;-0.41;81.09
43701;BME280;58809;47.984;7.964;2023-01-29T08:02:33;98201.50;;;-0.23;80.51
43701;BME280;58809;47.984;7.964;2023-01-29T08:05:35;98207.94;;;-0.14;80.67
43701;BME280;58809;47.984;7.964;2023-01-29T08:08:36;98204.84;;;-0.21;80.67
43701;BME280;58809;47.984;7.964;2023-01-29T08:11:38;98217.91;;;-0.06;81.21
43701;BME280;58809;47.984;7.964;2023-01-29T08:14:40;98226.31;;;0.13;80.58
43701;BME280;58809;47.984;7.964;2023-01-29T08:17:42;98229.19;;;0.23;79.38
43701;BME280;58809;47.984;7.964;2023-01-29T08:21:01;98235.34;;;0.36;78.46
43701;BME280;58809;47.984;7.964;2023-01-29T08:24:02;98228.84;;;0.44;77.59
43701;BME280;58809;47.984;7.964;2023-01-29T08:27:04;98244.31;;;0.61;76.68
43701;BME280;58809;47.984;7.964;2023-01-29T08:30:07;98244.88;;;0.66;76.06
43701;BME280;58809;47.984;7.964;2023-01-29T08:33:09;98256.69;;;0.72;75.80
43701;BME280;58809;47.984;7.964;2023-01-29T08:36:11;98260.03;;;0.74;75.50
43701;BME280;58809;47.984;7.964;2023-01-29T08:39:13;98254.00;;;0.73;75.97
43701;BME280;58809;47.984;7.964;2023-01-29T08:42:14;98271.00;;;0.93;74.91
43701;BME280;58809;47.984;7.964;2023-01-29T08:45:16;98252.00;;;0.91;73.79
43701;BME280;58809;47.984;7.964;2023-01-29T08:48:18;98262.34;;;0.79;73.17
43701;BME280;58809;47.984;7.964;2023-01-29T08:51:20;98260.84;;;0.74;73.55
43701;BME280;58809;47.984;7.964;2023-01-29T08:54:22;98260.19;;;0.71;72.34
43701;BME280;58809;47.984;7.964;2023-01-29T08:57:24;98259.84;;;0.77;72.20
43701;BME280;58809;47.984;7.964;2023-01-29T09:00:26;98266.16;;;0.87;71.06
43701;BME280;58809;47.984;7.964;2023-01-29T09:03:27;98261.59;;;0.91;71.06
43701;BME280;58809;47.984;7.964;2023-01-29T09:06:29;98266.06;;;0.89;70.80
43701;BME280;58809;47.984;7.964;2023-01-29T09:09:30;98263.56;;;0.87;70.65
43701;BME280;58809;47.984;7.964;2023-01-29T09:12:32;98273.69;;;0.77;70.38
43701;BME280;58809;47.984;7.964;2023-01-29T09:15:33;98279.19;;;0.73;71.34
43701;BME280;58809;47.984;7.964;2023-01-29T09:18:35;98283.38;;;0.75;71.41
43701;BME280;58809;47.984;7.964;2023-01-29T09:21:37;98281.22;;;0.96;71.13
43701;BME280;58809;47.984;7.964;2023-01-29T09:24:38;98292.56;;;1.10;70.07
43701;BME280;58809;47.984;7.964;2023-01-29T09:27:40;98295.84;;;0.99;70.80
43701;BME280;58809;47.984;7.964;2023-01-29T09:30:42;98298.56;;;0.98;70.73
43701;BME280;58809;47.984;7.964;2023-01-29T09:33:44;98286.97;;;1.30;71.10
43701;BME280;58809;47.984;7.964;2023-01-29T09:36:45;98291.16;;;1.60;70.81
43701;BME280;58809;47.984;7.964;2023-01-29T09:39:48;98289.34;;;1.75;69.83
43701;BME280;58809;47.984;7.964;2023-01-29T09:42:54;98283.13;;;1.90;69.43
43701;BME280;58809;47.984;7.964;2023-01-29T09:46:04;98265.28;;;1.97;69.11
43701;BME280;58809;47.984;7.964;2023-01-29T09:52:27;98266.25;;;1.96;69.16
43701;BME280;58809;47.984;7.964;2023-01-29T09:55:35;98267.50;;;2.03;68.83
43701;BME280;58809;47.984;7.964;2023-01-29T09:58:41;98281.59;;;2.01;68.36
43701;BME280;58809;47.984;7.964;2023-01-29T10:02:08;98278.22;;;1.86;68.92
43701;BME280;58809;47.984;7.964;2023-01-29T10:05:16;98273.13;;;1.97;68.62
43701;BME280;58809;47.984;7.964;2023-01-29T10:08:46;98272.41;;;2.08;68.33
43701;BME280;58809;47.984;7.964;2023-01-29T10:15:29;98270.69;;;2.34;68.14
43701;BME280;58809;47.984;7.964;2023-01-29T10:18:44;98270.28;;;2.53;67.48
43701;BME280;58809;47.984;7.964;2023-01-29T10:25:25;98255.53;;;2.52;67.25
43701;BME280;58809;47.984;7.964;2023-01-29T10:28:35;98246.03;;;2.64;66.37
43701;BME280;58809;47.984;7.964;2023-01-29T10:31:38;98231.91;;;2.79;66.03
43701;BME280;58809;47.984;7.964;2023-01-29T10:35:05;98213.38;;;2.95;64.89
43701;BME280;58809;47.984;7.964;2023-01-29T10:38:23;98204.97;;;3.03;64.24
43701;BME280;58809;47.984;7.964;2023-01-29T10:48:16;98182.03;;;3.19;62.65
43701;BME280;58809;47.984;7.964;2023-01-29T10:55:18;98166.47;;;3.53;61.38
43701;BME280;58809;47.984;7.964;2023-01-29T10:58:32;98170.31;;;3.96;60.71
43701;BME280;58809;47.984;7.964;2023-01-29T11:01:34;98168.31;;;4.11;60.10
43701;BME280;58809;47.984;7.964;2023-01-29T11:04:36;98171.03;;;4.09;58.66
43701;BME280;58809;47.984;7.964;2023-01-29T11:07:39;98173.63;;;3.87;59.92
43701;BME280;58809;47.984;7.964;2023-01-29T11:14:00;98166.88;;;3.71;59.67
43701;BME280;58809;47.984;7.964;2023-01-29T11:17:14;98165.47;;;3.67;59.39
43701;BME280;58809;47.984;7.964;2023-01-29T11:20:27;98164.09;;;3.85;59.32
43701;BME280;58809;47.984;7.964;2023-01-29T11:23:31;98167.81;;;3.94;58.83
43701;BME280;58809;47.984;7.964;2023-01-29T11:26:38;98171.81;;;3.87;58.33
43701;BME280;58809;47.984;7.964;2023-01-29T11:29:44;98176.69;;;3.92;59.25
43701;BME280;58809;47.984;7.964;2023-01-29T11:33:16;98173.28;;;4.14;59.14
43701;BME280;58809;47.984;7.964;2023-01-29T11:36:30;98174.28;;;4.24;58.32
43701;BME280;58809;47.984;7.964;2023-01-29T11:39:42;98158.81;;;4.43;58.01
43701;BME280;58809;47.984;7.964;2023-01-29T11:42:45;98165.13;;;4.63;58.02
43701;BME280;58809;47.984;7.964;2023-01-29T11:45:50;98165.47;;;4.48;58.34
43701;BME280;58809;47.984;7.964;2023-01-29T11:48:53;98163.34;;;4.41;58.85
43701;BME280;58809;47.984;7.964;2023-01-29T11:52:05;98149.28;;;4.20;59.50
43701;BME280;58809;47.984;7.964;2023-01-29T11:55:15;98142.72;;;4.14;59.40
43701;BME280;58809;47.984;7.964;2023-01-29T11:58:32;98135.31;;;4.19;59.64
43701;BME280;58809;47.984;7.964;2023-01-29T12:01:37;98138.91;;;4.18;60.00
43701;BME280;58809;47.984;7.964;2023-01-29T12:04:40;98135.41;;;4.07;59.88
43701;BME280;58809;47.984;7.964;2023-01-29T12:07:43;98134.78;;;3.80;60.59
43701;BME280;58809;47.984;7.964;2023-01-29T12:10:45;98137.91;;;3.85;59.84
43701;BME280;58809;47.984;7.964;2023-01-29T12:13:53;98144.44;;;3.80;60.78
43701;BME280;58809;47.984;7.964;2023-01-29T12:16:56;98148.78;;;3.68;60.71
43701;BME280;58809;47.984;7.964;2023-01-29T12:20:03;98146.25;;;3.55;60.51
43701;BME280;58809;47.984;7.964;2023-01-29T12:26:43;98132.84;;;3.71;60.22
43701;BME280;58809;47.984;7.964;2023-01-29T12:33:27;98124.84;;;3.50;61.12
43701;BME280;58809;47.984;7.964;2023-01-29T12:36:51;98114.63;;;3.58;60.81
43701;BME280;58809;47.984;7.964;2023-01-29T12:39:55;98116.41;;;3.58;61.49
43701;BME280;58809;47.984;7.964;2023-01-29T12:43:01;98111.06;;;3.59;60.92
43701;BME280;58809;47.984;7.964;2023-01-29T12:46:08;98103.25;;;3.71;60.97
43701;BME280;58809;47.984;7.964;2023-01-29T12:49:16;98109.44;;;3.81;60.51
43701;BME280;58809;47.984;7.964;2023-01-29T12:52:34;98097.31;;;3.80;60.23
43701;BME280;58809;47.984;7.964;2023-01-29T12:55:41;98102.78;;;3.88;60.00
43701;BME280;58809;47.984;7.964;2023-01-29T12:58:47;98105.25;;;3.67;60.47
43701;BME280;58809;47.984;7.964;2023-01-29T13:01:54;98105.13;;;3.57;60.43
43701;BME280;58809;47.984;7.964;2023-01-29T13:05:02;98093.38;;;3.74;60.67
43701;BME280;58809;47.984;7.964;2023-01-29T13:08:08;98086.72;;;3.93;60.70
43701;BME280;58809;47.984;7.964;2023-01-29T13:11:16;98076.69;;;3.64;60.49
43701;BME280;58809;47.984;7.964;2023-01-29T13:14:56;98066.31;;;3.51;60.22
43701;BME280;58809;47.984;7.964;2023-01-29T13:21:36;98073.03;;;3.66;60.72
43701;BME280;58809;47.984;7.964;2023-01-29T13:24:39;98063.00;;;3.60;61.13
43701;BME280;58809;47.984;7.964;2023-01-29T13:27:45;98051.19;;;3.43;61.34
43701;BME280;58809;47.984;7.964;2023-01-29T13:34:15;98049.81;;;3.62;61.11
43701;BME280;58809;47.984;7.964;2023-01-29T13:37:28;98048.47;;;3.56;61.36
43701;BME280;58809;47.984;7.964;2023-01-29T13:40:31;98036.97;;;3.81;60.75
43701;BME280;58809;47.984;7.964;2023-01-29T13:43:37;98032.22;;;3.87;61.20
43701;BME280;58809;47.984;7.964;2023-01-29T13:46:40;98030.66;;;3.61;61.18
43701;BME280;58809;47.984;7.964;2023-01-29T13:49:45;98036.00;;;3.60;61.29
43701;BME280;58809;47.984;7.964;2023-01-29T13:53:00;98019.84;;;3.77;61.17
43701;BME280;58809;47.984;7.964;2023-01-29T13:56:29;98020.53;;;3.68;61.42
43701;BME280;58809;47.984;7.964;2023-01-29T14:00:09;98017.34;;;3.76;61.02
43701;BME280;58809;47.984;7.964;2023-01-29T14:03:42;98006.28;;;3.83;61.34
43701;BME280;58809;47.984;7.964;2023-01-29T14:07:46;98014.47;;;3.79;61.75
43701;BME280;58809;47.984;7.964;2023-01-29T14:21:25;98026.63;;;3.69;62.28
43701;BME280;58809;47.984;7.964;2023-01-29T14:24:30;98028.66;;;3.76;61.74
43701;BME280;58809;47.984;7.964;2023-01-29T14:27:32;98020.69;;;3.78;61.71
43701;BME280;58809;47.984;7.964;2023-01-29T14:30:35;98039.44;;;3.72;61.83
43701;BME280;58809;47.984;7.964;2023-01-29T14:33:39;98033.16;;;3.74;61.71
43701;BME280;58809;47.984;7.964;2023-01-29T14:36:45;98037.22;;;3.90;61.23
43701;BME280;58809;47.984;7.964;2023-01-29T14:43:07;98042.59;;;3.30;62.57
43701;BME280;58809;47.984;7.964;2023-01-29T14:50:05;98048.16;;;2.66;65.04
43701;BME280;58809;47.984;7.964;2023-01-29T14:53:24;98048.16;;;2.66;64.93
43701;BME280;58809;47.984;7.964;2023-01-29T14:56:33;98049.84;;;2.54;65.51
43701;BME280;58809;47.984;7.964;2023-01-29T14:59:55;98056.16;;;2.52;65.84
43701;BME280;58809;47.984;7.964;2023-01-29T15:02:59;98049.41;;;2.23;66.64
43701;BME280;58809;47.984;7.964;2023-01-29T15:06:04;98060.38;;;2.28;66.73
43701;BME280;58809;47.984;7.964;2023-01-29T15:16:05;98068.06;;;2.06;66.88
43701;BME280;58809;47.984;7.964;2023-01-29T15:20:04;98087.06;;;2.08;67.05
43701;BME280;58809;47.984;7.964;2023-01-29T15:22:44;98095.41;;;2.00;66.92
43701;BME280;58809;47.984;7.964;2023-01-29T15:25:48;98098.31;;;1.83;67.75
43701;BME280;58809;47.984;7.964;2023-01-29T15:28:56;98094.69;;;1.72;67.89
43701;BME280;58809;47.984;7.964;2023-01-29T15:32:04;98091.13;;;1.73;68.10
43701;BME280;58809;47.984;7.964;2023-01-29T15:35:41;98090.19;;;1.75;68.23
43701;BME280;58809;47.984;7.964;2023-01-29T15:38:43;98095.94;;;1.80;68.29
43701;BME280;58809;47.984;7.964;2023-01-29T15:41:45;98091.84;;;1.88;68.50
43701;BME280;58809;47.984;7.964;2023-01-29T15:44:46;98086.53;;;1.90;67.86
43701;BME280;58809;47.984;7.964;2023-01-29T15:47:49;98089.38;;;1.87;68.22
43701;BME280;58809;47.984;7.964;2023-01-29T15:50:52;98093.22;;;1.81;68.43
43701;BME280;58809;47.984;7.964;2023-01-29T15:56:56;98090.81;;;1.65;68.89
43701;BME280;58809;47.984;7.964;2023-01-29T15:59:58;98083.81;;;1.53;69.25
43701;BME280;58809;47.984;7.964;2023-01-29T16:03:12;98084.97;;;1.49;69.53
43701;BME280;58809;47.984;7.964;2023-01-29T16:06:15;98086.50;;;1.51;69.50
43701;BME280;58809;47.984;7.964;2023-01-29T16:09:20;98098.13;;;1.60;69.61
43701;BME280;58809;47.984;7.964;2023-01-29T16:12:24;98101.47;;;1.75;69.49
43701;BME280;58809;47.984;7.964;2023-01-29T16:15:34;98099.28;;;1.69;69.36
43701;BME280;58809;47.984;7.964;2023-01-29T16:18:37;98096.66;;;1.56;69.63
43701;BME280;58809;47.984;7.964;2023-01-29T16:21:50;98102.41;;;1.61;69.95
43701;BME280;58809;47.984;7.964;2023-01-29T16:24:53;98097.47;;;1.57;69.98
43701;BME280;58809;47.984;7.964;2023-01-29T16:28:09;98098.94;;;1.48;70.03
43701;BME280;58809;47.984;7.964;2023-01-29T16:31:26;98106.78;;;1.61;70.15
43701;BME280;58809;47.984;7.964;2023-01-29T16:34:41;98103.88;;;1.78;70.01
43701;BME280;58809;47.984;7.964;2023-01-29T16:37:49;98112.63;;;1.90;69.83
43701;BME280;58809;47.984;7.964;2023-01-29T16:44:34;98104.59;;;1.93;69.50
43701;BME280;58809;47.984;7.964;2023-01-29T16:47:39;98098.56;;;1.92;69.58
43701;BME280;58809;47.984;7.964;2023-01-29T16:50:43;98097.41;;;1.84;70.12
43701;BME280;58809;47.984;7.964;2023-01-29T16:54:25;98097.94;;;1.76;69.92
43701;BME280;58809;47.984;7.964;2023-01-29T16:57:30;98091.34;;;1.70;70.06
43701;BME280;58809;47.984;7.964;2023-01-29T17:00:33;98083.19;;;1.62;70.02
43701;BME280;58809;47.984;7.964;2023-01-29T17:03:36;98081.50;;;1.48;70.40
43701;BME280;58809;47.984;7.964;2023-01-29T17:06:41;98094.31;;;1.39;70.88
43701;BME280;58809;47.984;7.964;2023-01-29T17:09:47;98088.56;;;1.33;70.99
43701;BME280;58809;47.984;7.964;2023-01-29T17:12:58;98103.69;;;1.28;71.21
43701;BME280;58809;47.984;7.964;2023-01-29T17:16:25;98102.28;;;1.10;71.96
43701;BME280;58809;47.984;7.964;2023-01-29T17:19:27;98107.00;;;0.90;72.71
43701;BME280;58809;47.984;7.964;2023-01-29T17:22:30;98097.03;;;0.70;73.51
43701;BME280;58809;47.984;7.964;2023-01-29T17:25:32;98098.53;;;0.60;74.21
43701;BME280;58809;47.984;7.964;2023-01-29T17:28:33;98091.69;;;0.44;74.48
43701;BME280;58809;47.984;7.964;2023-01-29T17:31:36;98094.28;;;0.44;75.11
43701;BME280;58809;47.984;7.964;2023-01-29T17:34:37;98098.00;;;0.40;75.59
43701;BME280;58809;47.984;7.964;2023-01-29T17:37:39;98100.34;;;0.30;76.18
43701;BME280;58809;47.984;7.964;2023-01-29T17:40:44;98093.94;;;0.22;76.20
43701;BME280;58809;47.984;7.964;2023-01-29T17:43:47;98087.56;;;0.13;76.95
43701;BME280;58809;47.984;7.964;2023-01-29T17:46:48;98097.41;;;0.08;77.36
43701;BME280;58809;47.984;7.964;2023-01-29T17:49:50;98095.06;;;0.03;77.75
43701;BME280;58809;47.984;7.964;2023-01-29T17:52:52;98101.19;;;-0.12;77.69
43701;BME280;58809;47.984;7.964;2023-01-29T17:55:56;98103.31;;;-0.19;78.34
43701;BME280;58809;47.984;7.964;2023-01-29T17:58:58;98112.25;;;-0.23;78.59
43701;BME280;58809;47.984;7.964;2023-01-29T18:01:59;98108.41;;;-0.32;79.07
43701;BME280;58809;47.984;7.964;2023-01-29T18:05:01;98105.44;;;-0.40;79.77
43701;BME280;58809;47.984;7.964;2023-01-29T18:08:03;98105.69;;;-0.45;80.20
43701;BME280;58809;47.984;7.964;2023-01-29T18:11:05;98109.88;;;-0.56;80.01
43701;BME280;58809;47.984;7.964;2023-01-29T18:14:08;98109.38;;;-0.63;81.03
43701;BME280;58809;47.984;7.964;2023-01-29T18:17:15;98110.16;;;-0.77;81.70
43701;BME280;58809;47.984;7.964;2023-01-29T18:20:23;98104.88;;;-0.75;82.00
43701;BME280;58809;47.984;7.964;2023-01-29T18:23:26;98109.84;;;-0.87;82.21
43701;BME280;58809;47.984;7.964;2023-01-29T18:26:29;98113.13;;;-0.83;83.17